Time;durP1;ratioP1;P1;durP2;ratioP2;P2;SDS_P1;SDS_P2;PMS_P1;PMS_P2;Temp;Humidity;BMP_temperature;BMP_pressure;BME280_temperature;BME280_humidity;BME280_pressure;Samples;Min_cycle;Max_cycle;Signal;HPM_P1;HPM_P2
2022/06/16 00:01:03;;;;;;;4.95;2.03;;;;;;;;;;5111102;27;20446;-70
2022/06/16 00:03:29;;;;;;;4.97;2.08;;;;;;;;;;5111207;28;20028;-70
2022/06/16 00:05:55;;;;;;;5.78;2.10;;;;;;;;;;5111156;28;20077;-70
2022/06/16 00:08:22;;;;;;;5.70;2.22;;;;;;;;;;5110887;28;20106;-70
2022/06/16 00:13:37;;;;;;;4.93;2.33;;;;;;;;;;5111087;28;20094;-70
2022/06/16 00:17:28;;;;;;;4.88;2.33;;;;;;;;;;5111601;27;20117;-70
2022/06/16 00:19:54;;;;;;;4.63;2.30;;;;;;;;;;5111159;28;20108;-70
2022/06/16 00:23:59;;;;;;;5.13;2.28;;;;;;;;;;5111573;27;20445;-71
2022/06/16 00:27:58;;;;;;;5.93;2.33;;;;;;;;;;5131315;27;20123;-71
2022/06/16 00:30:25;;;;;;;4.38;2.33;;;;;;;;;;5131798;28;20024;-70
2022/06/16 00:34:49;;;;;;;6.40;2.70;;;;;;;;;;5111553;27;20393;-70
2022/06/16 00:37:15;;;;;;;8.38;2.50;;;;;;;;;;5110869;28;20027;-70
2022/06/16 00:41:53;;;;;;;5.18;2.35;;;;;;;;;;5112001;27;20422;-72
2022/06/16 00:46:07;;;;;;;6.85;2.35;;;;;;;;;;5111763;27;20449;-71
2022/06/16 00:52:23;;;;;;;2.83;2.00;;;;;;;;;;5111340;27;20880;-70
2022/06/16 00:55:51;;;;;;;5.30;2.20;;;;;;;;;;5111377;27;20414;-70
2022/06/16 01:00:52;;;;;;;5.85;2.17;;;;;;;;;;5111379;27;20397;-70
2022/06/16 01:06:39;;;;;;;6.28;2.33;;;;;;;;;;5111256;27;20397;-70
2022/06/16 01:09:10;;;;;;;3.97;2.17;;;;;;;;;;5111417;28;20103;-70
2022/06/16 01:14:42;;;;;;;4.60;2.83;;;;;;;;;;5111444;28;20157;-70
2022/06/16 01:19:56;;;;;;;4.95;2.20;;;;;;;;;;5112044;27;20422;-70
2022/06/16 01:22:31;;;;;;;3.78;2.22;;;;;;;;;;5111250;28;20081;-71
2022/06/16 01:25:04;;;;;;;5.55;2.80;;;;;;;;;;5110819;28;20032;-70
2022/06/16 01:27:49;;;;;;;6.25;2.67;;;;;;;;;;5126885;28;20042;-70
2022/06/16 01:30:16;;;;;;;6.20;2.65;;;;;;;;;;5111091;28;20071;-71
2022/06/16 01:34:06;;;;;;;5.85;2.50;;;;;;;;;;5111275;27;20397;-71
2022/06/16 01:41:06;;;;;;;7.22;2.38;;;;;;;;;;5111316;27;20389;-70
2022/06/16 01:45:04;;;;;;;7.95;2.28;;;;;;;;;;5111344;27;20437;-71
2022/06/16 01:49:15;;;;;;;5.57;2.72;;;;;;;;;;5111217;27;20397;-70
2022/06/16 01:51:47;;;;;;;4.18;2.35;;;;;;;;;;5111331;28;20379;-70
2022/06/16 01:54:23;;;;;;;4.25;2.53;;;;;;;;;;5111111;28;20019;-70
2022/06/16 01:58:38;;;;;;;5.35;2.10;;;;;;;;;;5103471;27;1485035;-70
2022/06/16 02:01:07;;;;;;;5.90;2.42;;;;;;;;;;5131295;28;20031;-70
2022/06/16 02:09:01;;;;;;;4.85;2.47;;;;;;;;;;5111378;27;20388;-71
2022/06/16 02:11:28;;;;;;;5.65;2.58;;;;;;;;;;5111473;28;20034;-70
2022/06/16 02:16:27;;;;;;;5.25;2.50;;;;;;;;;;5112000;27;20410;-71
2022/06/16 02:19:04;;;;;;;6.80;2.45;;;;;;;;;;5111396;27;20422;-71
2022/06/16 02:21:35;;;;;;;3.38;2.08;;;;;;;;;;5110917;28;20081;-70
2022/06/16 02:24:03;;;;;;;4.85;2.45;;;;;;;;;;5111543;28;20024;-71
2022/06/16 02:26:29;;;;;;;8.52;2.65;;;;;;;;;;5111565;28;20024;-70
2022/06/16 02:28:57;;;;;;;4.47;2.60;;;;;;;;;;5110747;28;20020;-71
2022/06/16 02:31:41;;;;;;;4.55;2.55;;;;;;;;;;5111121;28;20030;-70
2022/06/16 02:34:08;;;;;;;3.78;1.92;;;;;;;;;;5111043;28;20477;-71
2022/06/16 02:38:38;;;;;;;4.18;2.38;;;;;;;;;;5111850;27;20396;-71
2022/06/16 02:43:05;;;;;;;3.25;2.13;;;;;;;;;;5110971;27;20422;-70
2022/06/16 02:45:53;;;;;;;4.95;3.17;;;;;;;;;;5111280;28;20020;-70
2022/06/16 02:51:31;;;;;;;3.88;2.28;;;;;;;;;;5111653;27;20392;-71
2022/06/16 02:55:17;;;;;;;6.00;2.45;;;;;;;;;;5111289;27;20930;-70
2022/06/16 02:59:21;;;;;;;5.47;2.63;;;;;;;;;;5112026;27;20392;-70
2022/06/16 03:05:21;;;;;;;6.32;2.33;;;;;;;;;;5112123;27;20741;-70
2022/06/16 03:07:47;;;;;;;5.75;2.75;;;;;;;;;;5111330;28;20166;-70
2022/06/16 03:10:50;;;;;;;4.40;2.20;;;;;;;;;;5110935;28;20038;-70
2022/06/16 03:13:01;;;;;;;5.00;2.72;;;;;;;;;;5111110;28;20028;-70
2022/06/16 03:17:37;;;;;;;5.93;3.05;;;;;;;;;;5111505;27;20620;-70
2022/06/16 03:22:27;;;;;;;;;;;;;;;;;;5111700;27;20411;-70
2022/06/16 03:25:31;;;;;;;;;;;;;;;;;;5111410;27;20422;-71
2022/06/16 03:27:58;;;;;;;;;;;;;;;;;;5111751;28;19924;-71
2022/06/16 03:31:50;;;;;;;;;;;;;;;;;;5111584;27;20393;-71
2022/06/16 03:34:15;;;;;;;;;;;;;;;;;;5110450;28;19908;-71
2022/06/16 03:38:42;;;;;;;167.15;150.70;;;;;;;;;;5111448;27;20422;-71
2022/06/16 03:49:44;;;;;;;172.88;156.63;;;;;;;;;;5111546;27;20397;-71
2022/06/16 03:52:10;;;;;;;212.15;188.40;;;;;;;;;;5110917;28;20058;-70
2022/06/16 03:54:36;;;;;;;247.27;204.18;;;;;;;;;;5111539;28;20388;-70
2022/06/16 04:00:21;;;;;;;272.92;214.50;;;;;;;;;;5111247;27;20389;-70
2022/06/16 04:02:47;;;;;;;250.15;203.95;;;;;;;;;;5111297;28;20020;-70
2022/06/16 04:05:14;;;;;;;247.23;204.80;;;;;;;;;;5111760;28;20077;-70
2022/06/16 04:07:40;;;;;;;247.65;203.88;;;;;;;;;;5110745;28;20024;-70
2022/06/16 04:11:56;;;;;;;256.73;208.90;;;;;;;;;;5071012;28;20395;-70
2022/06/16 04:14:22;;;;;;;240.38;201.70;;;;;;;;;;5070383;28;20043;-70
2022/06/16 04:16:52;;;;;;;242.23;203.00;;;;;;;;;;5070739;28;20025;-70
2022/06/16 04:19:18;;;;;;;233.85;200.18;;;;;;;;;;5070643;28;20024;-70
2022/06/16 04:21:46;;;;;;;230.25;198.82;;;;;;;;;;5068909;28;20059;-71
2022/06/16 04:26:30;;;;;;;229.00;199.38;;;;;;;;;;5111779;27;20824;-71
2022/06/16 04:28:56;;;;;;;207.27;185.25;;;;;;;;;;5110904;28;20062;-71
2022/06/16 04:33:18;;;;;;;196.55;176.57;;;;;;;;;;5111697;27;20842;-71
2022/06/16 04:38:01;;;;;;;304.90;224.88;;;;;;;;;;5112069;27;20404;-70
2022/06/16 04:40:28;;;;;;;286.25;220.32;;;;;;;;;;5111417;28;20030;-70
2022/06/16 04:42:54;;;;;;;231.30;199.80;;;;;;;;;;5110788;28;20024;-70
2022/06/16 04:46:36;;;;;;;251.75;208.57;;;;;;;;;;5111363;27;20393;-71
2022/06/16 04:51:22;;;;;;;247.77;206.93;;;;;;;;;;5173548;27;20118;-70
2022/06/16 04:59:54;;;;;;;240.35;206.45;;;;;;;;;;5111951;27;20397;-70
2022/06/16 05:02:20;;;;;;;233.93;202.20;;;;;;;;;;5109580;28;20024;-70
2022/06/16 05:04:46;;;;;;;222.73;198.27;;;;;;;;;;5111235;28;20019;-70
2022/06/16 05:07:12;;;;;;;209.32;187.50;;;;;;;;;;5111200;28;20420;-74
2022/06/16 05:09:39;;;;;;;231.60;202.18;;;;;;;;;;5110733;28;20486;-72
2022/06/16 05:12:20;;;;;;;259.15;212.15;;;;;;;;;;5071292;28;20392;-72
2022/06/16 05:15:25;;;;;;;217.68;193.73;;;;;;;;;;5173963;27;20299;-73
2022/06/16 05:18:38;;;;;;;262.88;214.00;;;;;;;;;;5111572;27;20397;-72
2022/06/16 05:21:55;;;;;;;261.98;216.10;;;;;;;;;;5111609;27;20389;-72
2022/06/16 05:24:22;;;;;;;252.48;209.38;;;;;;;;;;5101223;28;20372;-76
2022/06/16 05:28:43;;;;;;;196.40;176.30;;;;;;;;;;5139786;27;20437;-74
2022/06/16 05:31:09;;;;;;;272.70;215.73;;;;;;;;;;5109128;28;20032;-72
2022/06/16 05:33:35;;;;;;;256.30;211.65;;;;;;;;;;5111135;28;20020;-75
2022/06/16 05:36:50;;;;;;;277.00;219.70;;;;;;;;;;5111438;27;20426;-73
2022/06/16 05:41:15;;;;;;;303.77;231.02;;;;;;;;;;5111196;27;20570;-76
2022/06/16 05:45:12;;;;;;;293.40;227.75;;;;;;;;;;5111206;27;20385;-76
2022/06/16 05:47:38;;;;;;;275.55;221.75;;;;;;;;;;5111309;28;20016;-74
2022/06/16 05:50:15;;;;;;;308.00;230.98;;;;;;;;;;5111162;27;20422;-76
2022/06/16 05:54:00;;;;;;;192.45;173.07;;;;;;;;;;5111149;27;20388;-75
2022/06/16 05:56:26;;;;;;;247.38;209.30;;;;;;;;;;5111062;28;20057;-75
2022/06/16 05:58:52;;;;;;;259.80;215.48;;;;;;;;;;5110670;28;20047;-74
2022/06/16 06:02:23;;;;;;;277.50;224.65;;;;;;;;;;5111122;27;20396;-76
2022/06/16 06:04:49;;;;;;;287.48;228.75;;;;;;;;;;5111128;28;20028;-76
2022/06/16 06:16:50;;;;;;;300.27;233.30;;;;;;;;;;5108942;27;20389;-74
2022/06/16 06:20:12;;;;;;;309.75;230.40;;;;;;;;;;5117686;27;20430;-77
2022/06/16 06:22:39;;;;;;;312.77;233.10;;;;;;;;;;5110194;28;20023;-77
2022/06/16 06:29:34;;;;;;;5.88;2.25;;;;;;;;;;5163661;27;20322;-72
2022/06/16 06:32:01;;;;;;;5.43;2.20;;;;;;;;;;5142845;27;20022;-72
2022/06/16 06:34:27;;;;;;;7.13;2.28;;;;;;;;;;5110154;28;20024;-73
2022/06/16 06:36:53;;;;;;;4.25;2.20;;;;;;;;;;5112555;28;20054;-75
2022/06/16 06:40:03;;;;;;;5.15;2.95;;;;;;;;;;5105558;27;20404;-73
2022/06/16 06:43:21;;;;;;;4.78;1.95;;;;;;;;;;5109775;27;20438;-75
2022/06/16 06:51:23;;;;;;;5.75;2.08;;;;;;;;;;5108228;27;20109;-66
2022/06/16 06:53:49;;;;;;;3.95;2.03;;;;;;;;;;5086283;28;20028;-66
2022/06/16 06:56:40;;;;;;;6.05;2.55;;;;;;;;;;5107907;27;20384;-64
2022/06/16 06:59:07;;;;;;;4.97;2.70;;;;;;;;;;5110880;28;20058;-65
2022/06/16 07:01:34;;;;;;;3.40;2.30;;;;;;;;;;5110970;28;20032;-67
2022/06/16 07:04:02;;;;;;;5.32;2.72;;;;;;;;;;5099819;28;20016;-66
2022/06/16 07:06:28;;;;;;;5.72;2.58;;;;;;;;;;5084537;28;20024;-66
2022/06/16 07:11:07;;;;;;;3.78;2.13;;;;;;;;;;5066172;28;20408;-69
2022/06/16 07:13:33;;;;;;;3.42;2.08;;;;;;;;;;5066972;28;20040;-68
2022/06/16 07:15:59;;;;;;;6.03;2.30;;;;;;;;;;5064866;28;20092;-68
2022/06/16 07:19:14;;;;;;;6.85;2.53;;;;;;;;;;5172115;27;20825;-67
2022/06/16 07:21:41;;;;;;;2.97;2.10;;;;;;;;;;5151813;27;20031;-68
2022/06/16 07:24:07;;;;;;;4.18;2.10;;;;;;;;;;5150951;27;20023;-68
2022/06/16 07:26:34;;;;;;;4.55;2.40;;;;;;;;;;5123755;28;20031;-71
2022/06/16 07:29:00;;;;;;;5.47;2.25;;;;;;;;;;5129162;28;20103;-69
2022/06/16 07:33:27;;;;;;;4.28;2.15;;;;;;;;;;5105154;27;20459;-71
2022/06/16 07:35:55;;;;;;;5.75;2.40;;;;;;;;;;5107170;28;20102;-68
2022/06/16 07:38:21;;;;;;;4.38;1.92;;;;;;;;;;5107267;28;20020;-69
2022/06/16 07:40:48;;;;;;;3.80;1.92;;;;;;;;;;5104473;28;20032;-68
2022/06/16 07:43:14;;;;;;;3.28;2.03;;;;;;;;;;5108131;28;20027;-68
2022/06/16 07:45:40;;;;;;;4.05;2.35;;;;;;;;;;5099897;28;20081;-68
2022/06/16 07:48:08;;;;;;;2.38;1.65;;;;;;;;;;5101230;28;20020;-68
2022/06/16 07:50:37;;;;;;;2.75;1.83;;;;;;;;;;5110126;28;20016;-66
2022/06/16 07:53:07;;;;;;;4.07;1.90;;;;;;;;;;5109911;28;20403;-68
2022/06/16 07:59:05;;;;;;;4.38;2.25;;;;;;;;;;5109745;27;20393;-66
2022/06/16 08:01:31;;;;;;;3.55;1.90;;;;;;;;;;5107132;28;20118;-67
2022/06/16 08:04:46;;;;;;;4.75;2.53;;;;;;;;;;5092640;27;20414;-66
2022/06/16 08:08:47;;;;;;;2.67;1.70;;;;;;;;;;5110814;27;20426;-68
2022/06/16 08:13:17;;;;;;;4.18;2.47;;;;;;;;;;5069537;28;20892;-67
2022/06/16 08:15:46;;;;;;;6.13;2.53;;;;;;;;;;5068967;28;20481;-67
2022/06/16 08:18:17;;;;;;;3.80;2.10;;;;;;;;;;5069616;28;20025;-67
2022/06/16 08:20:44;;;;;;;3.80;1.70;;;;;;;;;;5069648;28;20041;-66
2022/06/16 08:24:14;;;;;;;3.40;2.10;;;;;;;;;;5068163;28;20776;-66
2022/06/16 08:26:40;;;;;;;3.58;2.10;;;;;;;;;;5066884;28;20053;-66
2022/06/16 08:29:08;;;;;;;4.25;1.90;;;;;;;;;;5066534;28;20075;-66
2022/06/16 08:32:34;;;;;;;3.38;1.90;;;;;;;;;;5108379;27;20388;-66
2022/06/16 08:36:29;;;;;;;2.58;1.63;;;;;;;;;;5109429;27;20128;-68
2022/06/16 08:40:01;;;;;;;3.78;2.03;;;;;;;;;;5069540;28;20400;-68
2022/06/16 08:43:54;;;;;;;3.85;2.17;;;;;;;;;;5102374;27;20124;-67
2022/06/16 08:48:07;;;;;;;3.67;2.10;;;;;;;;;;5109330;27;20393;-69
2022/06/16 08:50:36;;;;;;;3.95;1.90;;;;;;;;;;5109403;28;20403;-67
2022/06/16 08:53:21;;;;;;;2.50;1.80;;;;;;;;;;5097666;28;20115;-66
2022/06/16 08:55:53;;;;;;;6.63;2.15;;;;;;;;;;5108694;28;20016;-67
2022/06/16 08:58:26;;;;;;;9.33;2.97;;;;;;;;;;5102709;28;20092;-67
2022/06/16 09:00:56;;;;;;;3.50;1.95;;;;;;;;;;5107745;28;20503;-68
2022/06/16 09:03:29;;;;;;;7.55;2.30;;;;;;;;;;5107060;28;20161;-68
2022/06/16 09:06:17;;;;;;;3.53;1.95;;;;;;;;;;5109094;28;20028;-68
2022/06/16 09:09:08;;;;;;;3.17;1.67;;;;;;;;;;5064854;28;20405;-68
2022/06/16 09:11:56;;;;;;;3.72;2.20;;;;;;;;;;5042394;28;20029;-67
2022/06/16 09:17:34;;;;;;;3.00;1.95;;;;;;;;;;5046723;28;20071;-66
2022/06/16 09:20:04;;;;;;;4.13;2.10;;;;;;;;;;5046868;28;20026;-67
2022/06/16 09:22:38;;;;;;;5.07;2.05;;;;;;;;;;5048474;28;20021;-68
2022/06/16 09:25:11;;;;;;;5.07;2.08;;;;;;;;;;5049628;28;20029;-67
2022/06/16 09:27:43;;;;;;;3.40;2.10;;;;;;;;;;5048266;28;20041;-68
2022/06/16 09:30:09;;;;;;;3.67;2.00;;;;;;;;;;5049407;28;20022;-66
2022/06/16 09:32:51;;;;;;;4.82;2.10;;;;;;;;;;5046754;28;20056;-67
2022/06/16 09:35:23;;;;;;;5.22;2.10;;;;;;;;;;5049639;28;20025;-65
2022/06/16 09:38:15;;;;;;;6.57;2.47;;;;;;;;;;5109945;27;20410;-66
2022/06/16 09:40:47;;;;;;;3.20;1.90;;;;;;;;;;5109441;28;20028;-65
2022/06/16 09:43:16;;;;;;;7.85;2.20;;;;;;;;;;5107171;28;20103;-67
2022/06/16 09:45:45;;;;;;;4.43;2.50;;;;;;;;;;5105914;28;20095;-67
2022/06/16 09:48:36;;;;;;;3.55;2.13;;;;;;;;;;5103438;28;20089;-68
2022/06/16 09:51:07;;;;;;;3.58;1.90;;;;;;;;;;5106709;28;20035;-67
2022/06/16 09:53:37;;;;;;;3.90;2.10;;;;;;;;;;5107880;28;20024;-68
2022/06/16 09:56:06;;;;;;;6.90;2.22;;;;;;;;;;5107993;28;20030;-67
2022/06/16 09:58:45;;;;;;;3.35;1.90;;;;;;;;;;5108081;28;20731;-67
2022/06/16 10:01:13;;;;;;;3.13;2.10;;;;;;;;;;5109719;28;20048;-67
2022/06/16 10:03:41;;;;;;;3.40;2.10;;;;;;;;;;5101097;28;20022;-69
2022/06/16 10:06:07;;;;;;;3.75;1.75;;;;;;;;;;5101976;28;20045;-69
2022/06/16 10:08:33;;;;;;;5.55;2.35;;;;;;;;;;5123588;28;20024;-68
2022/06/16 10:12:25;;;;;;;4.45;1.80;;;;;;;;;;5109149;27;20392;-67
2022/06/16 10:14:57;;;;;;;3.97;2.33;;;;;;;;;;5025725;28;20034;-66
2022/06/16 10:17:24;;;;;;;4.20;2.00;;;;;;;;;;5039389;28;20030;-67
2022/06/16 10:19:51;;;;;;;2.83;1.73;;;;;;;;;;5059782;28;20037;-67
2022/06/16 10:22:21;;;;;;;2.63;1.77;;;;;;;;;;5094561;28;20051;-67
2022/06/16 10:24:53;;;;;;;4.07;2.08;;;;;;;;;;5092161;28;20032;-68
2022/06/16 10:27:20;;;;;;;3.53;1.80;;;;;;;;;;5100609;28;20028;-68
2022/06/16 10:29:57;;;;;;;5.07;1.90;;;;;;;;;;5083807;28;20032;-68
2022/06/16 10:32:42;;;;;;;4.40;1.80;;;;;;;;;;5085378;28;20031;-68
2022/06/16 10:35:15;;;;;;;3.25;1.80;;;;;;;;;;5085755;28;20052;-68
2022/06/16 10:37:41;;;;;;;2.33;1.60;;;;;;;;;;5084190;28;20024;-68
2022/06/16 10:40:12;;;;;;;3.20;1.60;;;;;;;;;;5104011;28;20020;-68
2022/06/16 10:42:42;;;;;;;3.13;1.75;;;;;;;;;;5107544;28;20031;-68
2022/06/16 10:45:10;;;;;;;2.63;1.80;;;;;;;;;;5108198;28;20531;-68
2022/06/16 10:47:40;;;;;;;4.43;1.83;;;;;;;;;;5108005;28;20090;-69
2022/06/16 10:50:08;;;;;;;4.65;1.77;;;;;;;;;;5108052;28;20735;-69
2022/06/16 10:52:39;;;;;;;3.72;2.08;;;;;;;;;;5103710;28;20039;-69
2022/06/16 10:55:12;;;;;;;3.88;1.83;;;;;;;;;;5101736;28;20024;-68
2022/06/16 10:57:46;;;;;;;3.65;2.08;;;;;;;;;;5106595;28;20054;-68
2022/06/16 11:00:21;;;;;;;4.20;1.73;;;;;;;;;;5102060;28;20027;-69
2022/06/16 11:02:59;;;;;;;3.30;1.83;;;;;;;;;;5105579;28;20028;-69
2022/06/16 11:05:26;;;;;;;5.65;2.05;;;;;;;;;;5095846;28;20162;-69
2022/06/16 11:07:52;;;;;;;2.65;1.67;;;;;;;;;;5109919;28;20035;-69
2022/06/16 11:10:29;;;;;;;5.43;1.90;;;;;;;;;;5109287;28;20092;-69
2022/06/16 11:12:56;;;;;;;2.92;1.80;;;;;;;;;;5103387;28;20096;-69
2022/06/16 11:15:26;;;;;;;2.67;1.95;;;;;;;;;;5097045;28;20055;-69
2022/06/16 11:17:55;;;;;;;3.85;1.90;;;;;;;;;;5096871;28;20024;-70
2022/06/16 11:20:35;;;;;;;6.15;2.20;;;;;;;;;;5108594;28;20035;-71
2022/06/16 11:23:07;;;;;;;7.38;2.38;;;;;;;;;;5092126;28;20077;-70
2022/06/16 11:25:35;;;;;;;2.97;2.10;;;;;;;;;;5077291;28;20020;-71
2022/06/16 11:28:09;;;;;;;3.67;1.80;;;;;;;;;;5078201;28;20039;-71
2022/06/16 11:30:38;;;;;;;5.20;2.30;;;;;;;;;;5092179;28;20032;-72
2022/06/16 11:33:05;;;;;;;4.88;1.85;;;;;;;;;;5096058;28;20024;-72
2022/06/16 11:35:41;;;;;;;3.08;1.80;;;;;;;;;;5096117;28;20024;-70
2022/06/16 11:38:25;;;;;;;3.70;2.10;;;;;;;;;;5095599;28;20024;-70
2022/06/16 11:40:56;;;;;;;5.53;2.22;;;;;;;;;;5094642;28;20054;-70
2022/06/16 11:43:48;;;;;;;3.60;2.08;;;;;;;;;;5094073;28;20028;-69
2022/06/16 11:46:24;;;;;;;3.58;1.85;;;;;;;;;;5091763;28;20027;-71
2022/06/16 11:48:50;;;;;;;3.47;1.60;;;;;;;;;;5095904;28;20477;-72
2022/06/16 11:51:46;;;;;;;3.38;1.70;;;;;;;;;;5081586;28;20036;-72
2022/06/16 11:54:18;;;;;;;5.38;1.92;;;;;;;;;;5057250;28;20041;-70
2022/06/16 11:56:44;;;;;;;;;;;;;;;;;;5075738;28;20024;-72
2022/06/16 11:59:29;;;;;;;3.45;1.90;;;;;;;;;;5074872;28;19998;-71
2022/06/16 12:02:01;;;;;;;3.53;1.70;;;;;;;;;;5073151;28;20469;-70
2022/06/16 12:04:42;;;;;;;2.85;1.38;;;;;;;;;;5073128;28;20078;-71
2022/06/16 12:07:11;;;;;;;2.90;1.63;;;;;;;;;;5073200;28;20032;-71
2022/06/16 12:09:40;;;;;;;4.43;1.85;;;;;;;;;;5073027;28;20035;-73
2022/06/16 12:12:10;;;;;;;3.40;1.38;;;;;;;;;;5073287;28;20024;-72
2022/06/16 12:14:55;;;;;;;3.50;1.95;;;;;;;;;;5071814;28;20020;-72
2022/06/16 12:17:46;;;;;;;2.60;1.55;;;;;;;;;;5073082;28;20042;-72
2022/06/16 12:20:21;;;;;;;4.38;1.77;;;;;;;;;;5072611;28;20029;-72
2022/06/16 12:22:53;;;;;;;3.85;1.80;;;;;;;;;;5072990;28;20021;-72
2022/06/16 12:25:37;;;;;;;3.03;1.57;;;;;;;;;;5072999;28;20418;-72
2022/06/16 12:28:14;;;;;;;4.60;1.67;;;;;;;;;;5074152;28;20016;-72
2022/06/16 12:30:47;;;;;;;4.13;1.92;;;;;;;;;;5074982;28;20060;-72
2022/06/16 12:33:20;;;;;;;3.10;1.40;;;;;;;;;;5073743;28;20025;-72
2022/06/16 12:35:56;;;;;;;3.10;1.40;;;;;;;;;;5074872;28;20055;-72
2022/06/16 12:38:57;;;;;;;3.38;1.50;;;;;;;;;;5073432;28;20016;-71
2022/06/16 12:41:25;;;;;;;2.15;1.25;;;;;;;;;;5012411;28;20149;-70
2022/06/16 12:43:54;;;;;;;2.55;1.50;;;;;;;;;;5062099;28;20029;-71
2022/06/16 12:46:24;;;;;;;4.60;1.42;;;;;;;;;;5074324;28;20021;-71
2022/06/16 12:48:53;;;;;;;3.97;1.73;;;;;;;;;;5074102;28;20493;-71
2022/06/16 12:51:20;;;;;;;1.63;1.38;;;;;;;;;;5074402;28;20040;-71
2022/06/16 12:53:58;;;;;;;3.80;1.80;;;;;;;;;;5074028;28;20020;-71
2022/06/16 12:56:24;;;;;;;2.35;1.55;;;;;;;;;;5074303;28;20032;-71
2022/06/16 12:59:00;;;;;;;3.58;1.40;;;;;;;;;;5074206;28;20062;-71
2022/06/16 13:01:26;;;;;;;2.40;1.33;;;;;;;;;;5073989;28;20473;-71
2022/06/16 13:03:56;;;;;;;3.72;1.70;;;;;;;;;;5073788;28;20074;-71
2022/06/16 13:06:23;;;;;;;2.08;1.40;;;;;;;;;;5074106;28;20020;-70
2022/06/16 13:08:56;;;;;;;2.75;1.58;;;;;;;;;;5073583;28;20025;-70
2022/06/16 13:11:26;;;;;;;3.25;1.67;;;;;;;;;;5073826;28;20059;-70
2022/06/16 13:13:55;;;;;;;2.95;1.48;;;;;;;;;;5074155;28;20017;-70
2022/06/16 13:16:25;;;;;;;2.42;1.38;;;;;;;;;;5073452;28;20020;-70
2022/06/16 13:18:55;;;;;;;4.18;1.73;;;;;;;;;;5074071;28;20469;-70
2022/06/16 13:21:26;;;;;;;2.08;1.65;;;;;;;;;;5073831;28;20417;-72
2022/06/16 13:24:01;;;;;;;4.35;1.60;;;;;;;;;;5073326;28;20380;-72
2022/06/16 13:26:31;;;;;;;2.47;1.52;;;;;;;;;;5074119;28;20459;-72
2022/06/16 13:29:15;;;;;;;2.83;1.50;;;;;;;;;;5073378;28;20380;-71
2022/06/16 13:31:46;;;;;;;3.10;1.45;;;;;;;;;;5073782;28;20047;-72
2022/06/16 13:34:19;;;;;;;1.20;1.02;;;;;;;;;;5073642;28;20024;-72
2022/06/16 13:36:45;;;;;;;3.10;1.80;;;;;;;;;;5073330;28;20032;-72
2022/06/16 13:39:31;;;;;;;1.40;1.10;;;;;;;;;;5073562;28;20016;-71
2022/06/16 13:42:13;;;;;;;2.53;1.40;;;;;;;;;;5073598;28;20055;-71
2022/06/16 13:44:39;;;;;;;;;;;;;;;;;;5073353;28;20024;-72
2022/06/16 13:47:05;;;;;;;2.65;1.60;;;;;;;;;;5073631;28;20050;-71
2022/06/16 13:49:31;;;;;;;2.65;1.50;;;;;;;;;;5073325;28;20035;-71
2022/06/16 13:52:13;;;;;;;4.13;1.65;;;;;;;;;;5073087;28;20032;-71
2022/06/16 13:54:39;;;;;;;2.63;1.48;;;;;;;;;;5073385;28;20060;-72
2022/06/16 13:57:24;;;;;;;1.70;1.30;;;;;;;;;;5073040;28;20484;-72
2022/06/16 13:59:54;;;;;;;2.33;1.50;;;;;;;;;;5073398;28;20032;-71
2022/06/16 14:02:21;;;;;;;2.75;1.70;;;;;;;;;;5073297;28;20091;-71
2022/06/16 14:05:05;;;;;;;2.00;1.17;;;;;;;;;;5072496;28;20028;-71
2022/06/16 14:07:37;;;;;;;1.90;1.00;;;;;;;;;;5073145;28;20526;-71
2022/06/16 14:10:03;;;;;;;2.80;1.52;;;;;;;;;;5072610;28;20491;-71
2022/06/16 14:12:44;;;;;;;2.15;1.02;;;;;;;;;;5072748;28;20028;-71
2022/06/16 14:15:11;;;;;;;2.03;1.20;;;;;;;;;;5073184;28;20025;-71
2022/06/16 14:17:57;;;;;;;3.33;1.30;;;;;;;;;;5073216;28;20070;-71
2022/06/16 14:20:28;;;;;;;1.83;1.23;;;;;;;;;;5073021;28;20029;-71
2022/06/16 14:22:57;;;;;;;3.73;1.40;;;;;;;;;;5073181;28;20020;-71
2022/06/16 14:25:27;;;;;;;1.98;1.23;;;;;;;;;;5072839;28;20032;-71
2022/06/16 14:27:55;;;;;;;2.88;1.40;;;;;;;;;;5073004;28;20028;-71
2022/06/16 14:30:47;;;;;;;4.15;1.60;;;;;;;;;;5072994;28;20028;-72
2022/06/16 14:33:24;;;;;;;3.47;2.35;;;;;;;;;;5069948;28;20396;-71
2022/06/16 14:35:54;;;;;;;2.10;1.20;;;;;;;;;;5072946;28;20507;-72
2022/06/16 14:38:28;;;;;;;2.72;1.35;;;;;;;;;;5072251;28;20357;-72
2022/06/16 14:40:54;;;;;;;1.77;1.13;;;;;;;;;;5071171;28;20032;-72
2022/06/16 14:43:41;;;;;;;2.10;1.50;;;;;;;;;;5073118;28;20043;-72
2022/06/16 14:46:07;;;;;;;1.75;1.48;;;;;;;;;;5041490;28;20492;-72
2022/06/16 14:48:37;;;;;;;2.22;1.50;;;;;;;;;;5071020;28;20032;-72
2022/06/16 14:51:13;;;;;;;2.35;1.30;;;;;;;;;;5070625;28;20032;-72
2022/06/16 14:53:40;;;;;;;1.60;1.20;;;;;;;;;;5070235;28;20028;-72
2022/06/16 14:56:14;;;;;;;2.85;1.30;;;;;;;;;;5083952;28;20435;-72
2022/06/16 14:58:48;;;;;;;1.95;1.20;;;;;;;;;;5092929;28;20449;-71
2022/06/16 15:01:16;;;;;;;2.50;1.65;;;;;;;;;;5092796;28;20067;-71
2022/06/16 15:03:43;;;;;;;3.90;1.55;;;;;;;;;;5094277;28;20048;-72
2022/06/16 15:06:10;;;;;;;3.78;1.55;;;;;;;;;;5096423;28;20035;-71
2022/06/16 15:08:38;;;;;;;2.58;1.60;;;;;;;;;;5096226;28;20379;-71
2022/06/16 15:11:07;;;;;;;2.15;1.30;;;;;;;;;;5096365;28;20044;-71
2022/06/16 15:13:37;;;;;;;2.47;1.55;;;;;;;;;;5096699;28;20020;-71
2022/06/16 15:16:07;;;;;;;2.42;1.50;;;;;;;;;;5096091;28;20059;-71
2022/06/16 15:18:34;;;;;;;3.17;1.65;;;;;;;;;;5096504;28;20559;-71
2022/06/16 15:21:09;;;;;;;2.10;1.33;;;;;;;;;;5096372;28;20032;-72
2022/06/16 15:23:37;;;;;;;3.35;1.42;;;;;;;;;;5096552;28;20035;-71
2022/06/16 15:26:04;;;;;;;2.50;1.40;;;;;;;;;;5095413;28;20361;-72
2022/06/16 15:28:32;;;;;;;3.70;2.03;;;;;;;;;;5095970;28;20024;-71
2022/06/16 15:31:09;;;;;;;2.63;1.80;;;;;;;;;;5096268;28;20032;-71
2022/06/16 15:36:32;;;;;;;2.40;1.33;;;;;;;;;;5096144;28;20047;-71
2022/06/16 15:38:58;;;;;;;3.65;1.70;;;;;;;;;;5094741;28;20024;-71
2022/06/16 15:41:36;;;;;;;2.10;1.30;;;;;;;;;;5096063;28;20031;-71
2022/06/16 15:44:13;;;;;;;3.92;1.50;;;;;;;;;;5095606;28;20103;-71
2022/06/16 15:46:42;;;;;;;1.75;1.20;;;;;;;;;;5095996;28;20020;-71
2022/06/16 15:49:09;;;;;;;1.73;1.13;;;;;;;;;;5095846;28;20160;-71
2022/06/16 15:51:36;;;;;;;2.00;1.30;;;;;;;;;;5095308;28;20538;-71
2022/06/16 15:54:02;;;;;;;2.20;1.52;;;;;;;;;;5095926;28;20020;-71
2022/06/16 15:56:34;;;;;;;2.72;1.45;;;;;;;;;;5095010;28;20105;-71
2022/06/16 15:59:01;;;;;;;3.03;1.75;;;;;;;;;;5095870;28;20095;-71
2022/06/16 16:01:29;;;;;;;2.85;1.50;;;;;;;;;;5095413;28;20031;-71
2022/06/16 16:03:55;;;;;;;3.75;1.70;;;;;;;;;;5095277;28;20381;-71
2022/06/16 16:06:21;;;;;;;2.83;1.70;;;;;;;;;;5095079;28;20023;-72
2022/06/16 16:08:49;;;;;;;2.63;1.30;;;;;;;;;;5095171;28;20020;-72
2022/06/16 16:11:25;;;;;;;2.28;1.40;;;;;;;;;;5094844;28;20047;-71
2022/06/16 16:14:11;;;;;;;4.03;1.80;;;;;;;;;;5095291;28;20361;-71
2022/06/16 16:16:51;;;;;;;8.05;1.88;;;;;;;;;;5095112;28;20101;-71
2022/06/16 16:19:17;;;;;;;2.50;1.92;;;;;;;;;;5094752;28;20028;-71
2022/06/16 16:21:46;;;;;;;3.53;1.80;;;;;;;;;;5094899;28;20384;-71
2022/06/16 16:24:19;;;;;;;2.33;1.60;;;;;;;;;;5094947;28;20024;-71
2022/06/16 16:27:05;;;;;;;3.38;2.17;;;;;;;;;;5090724;28;20551;-71
2022/06/16 16:29:32;;;;;;;3.53;2.00;;;;;;;;;;5093961;28;20016;-71
2022/06/16 16:32:03;;;;;;;4.47;2.00;;;;;;;;;;5093828;28;20046;-71
2022/06/16 16:34:43;;;;;;;7.07;1.58;;;;;;;;;;5094416;28;20027;-70
2022/06/16 16:37:22;;;;;;;3.30;2.33;;;;;;;;;;5094562;28;20024;-70
2022/06/16 16:40:07;;;;;;;3.67;2.08;;;;;;;;;;5093913;28;20020;-70
2022/06/16 16:45:25;;;;;;;3.88;1.83;;;;;;;;;;5094630;28;20150;-70
2022/06/16 16:48:10;;;;;;;2.78;1.58;;;;;;;;;;5094061;28;20105;-71
2022/06/16 16:50:41;;;;;;;3.15;1.60;;;;;;;;;;5094211;28;20151;-70
2022/06/16 16:53:16;;;;;;;2.75;1.75;;;;;;;;;;5094276;28;20028;-69
2022/06/16 16:55:44;;;;;;;3.42;1.85;;;;;;;;;;5094272;28;20526;-71
2022/06/16 16:58:10;;;;;;;4.32;2.13;;;;;;;;;;5093986;28;20491;-72
2022/06/16 17:00:37;;;;;;;3.97;2.13;;;;;;;;;;5093896;28;20024;-70
2022/06/16 17:03:04;;;;;;;5.70;3.60;;;;;;;;;;5094306;28;20431;-71
2022/06/16 17:05:31;;;;;;;3.30;1.92;;;;;;;;;;5092138;28;20023;-72
2022/06/16 17:07:57;;;;;;;4.72;2.80;;;;;;;;;;5093149;28;20039;-71
2022/06/16 17:10:23;;;;;;;4.43;2.33;;;;;;;;;;5093732;28;20048;-71
2022/06/16 17:12:50;;;;;;;2.80;1.40;;;;;;;;;;5092744;28;20030;-71
2022/06/16 17:15:18;;;;;;;2.58;1.50;;;;;;;;;;5093735;28;20038;-71
2022/06/16 17:17:45;;;;;;;3.00;2.17;;;;;;;;;;5094143;28;20062;-71
2022/06/16 17:20:11;;;;;;;5.13;2.10;;;;;;;;;;5093547;28;20026;-72
2022/06/16 17:22:37;;;;;;;3.88;2.25;;;;;;;;;;5093819;28;20365;-72
2022/06/16 17:25:08;;;;;;;3.05;1.67;;;;;;;;;;5092769;28;20065;-72
2022/06/16 17:27:35;;;;;;;3.67;1.73;;;;;;;;;;5093917;28;20480;-73
2022/06/16 17:30:01;;;;;;;4.80;1.77;;;;;;;;;;5093421;28;20032;-72
2022/06/16 17:32:28;;;;;;;2.33;1.40;;;;;;;;;;5093713;28;20058;-72
2022/06/16 17:34:56;;;;;;;4.57;1.83;;;;;;;;;;5093369;28;20107;-72
2022/06/16 17:37:27;;;;;;;3.05;1.50;;;;;;;;;;5093793;28;20480;-72
2022/06/16 17:39:54;;;;;;;3.75;1.90;;;;;;;;;;5093758;28;20067;-72
2022/06/16 17:42:21;;;;;;;4.20;1.70;;;;;;;;;;5091576;28;20472;-71